sensor_id;sensor_type;location;lat;lon;timestamp;pressure;altitude;pressure_sealevel;temperature;humidity
21236;BME280;10775;42.678;26.324;2023-02-13T00:01:27;100608.75;;;1.13;74.14
21236;BME280;10775;42.678;26.324;2023-02-13T00:03:52;100598.88;;;1.22;74.20
21236;BME280;10775;42.678;26.324;2023-02-13T00:06:18;100604.09;;;1.24;74.13
21236;BME280;10775;42.678;26.324;2023-02-13T00:08:43;100602.50;;;1.26;73.96
21236;BME280;10775;42.678;26.324;2023-02-13T00:11:08;100609.84;;;1.18;73.82
21236;BME280;10775;42.678;26.324;2023-02-13T00:13:34;100605.22;;;1.11;74.40
21236;BME280;10775;42.678;26.324;2023-02-13T00:16:02;100609.72;;;1.15;74.61
21236;BME280;10775;42.678;26.324;2023-02-13T00:18:28;100609.19;;;1.22;74.45
21236;BME280;10775;42.678;26.324;2023-02-13T00:21:01;100625.47;;;1.21;74.28
21236;BME280;10775;42.678;26.324;2023-02-13T00:23:28;100619.44;;;1.21;74.51
21236;BME280;10775;42.678;26.324;2023-02-13T00:25:54;100621.56;;;1.29;74.09
21236;BME280;10775;42.678;26.324;2023-02-13T00:28:20;100618.94;;;1.28;73.98
21236;BME280;10775;42.678;26.324;2023-02-13T00:30:45;100627.03;;;1.18;73.88
21236;BME280;10775;42.678;26.324;2023-02-13T00:33:10;100635.38;;;0.96;74.63
21236;BME280;10775;42.678;26.324;2023-02-13T00:35:36;100631.63;;;1.07;74.90
21236;BME280;10775;42.678;26.324;2023-02-13T00:38:01;100626.94;;;1.16;74.75
21236;BME280;10775;42.678;26.324;2023-02-13T00:40:27;100628.03;;;1.21;74.38
21236;BME280;10775;42.678;26.324;2023-02-13T00:42:52;100633.63;;;0.95;75.05
21236;BME280;10775;42.678;26.324;2023-02-13T00:45:18;100636.00;;;1.08;75.14
21236;BME280;10775;42.678;26.324;2023-02-13T00:47:43;100633.56;;;1.11;74.81
21236;BME280;10775;42.678;26.324;2023-02-13T00:50:09;100630.09;;;1.11;74.58
21236;BME280;10775;42.678;26.324;2023-02-13T00:52:34;100632.72;;;0.94;74.10
21236;BME280;10775;42.678;26.324;2023-02-13T00:55:00;100622.63;;;0.99;75.19
21236;BME280;10775;42.678;26.324;2023-02-13T00:57:25;100619.72;;;1.09;74.87
21236;BME280;10775;42.678;26.324;2023-02-13T00:59:51;100617.88;;;1.06;74.59
21236;BME280;10775;42.678;26.324;2023-02-13T01:02:16;100630.34;;;0.81;75.02
21236;BME280;10775;42.678;26.324;2023-02-13T01:04:42;100624.59;;;0.86;75.73
21236;BME280;10775;42.678;26.324;2023-02-13T01:07:07;100615.78;;;0.99;75.50
21236;BME280;10775;42.678;26.324;2023-02-13T01:09:33;100621.56;;;1.12;75.03
21236;BME280;10775;42.678;26.324;2023-02-13T01:11:58;100614.34;;;0.70;74.88
21236;BME280;10775;42.678;26.324;2023-02-13T01:14:24;100621.22;;;0.53;75.85
21236;BME280;10775;42.678;26.324;2023-02-13T01:16:49;100622.81;;;0.68;76.58
21236;BME280;10775;42.678;26.324;2023-02-13T01:19:15;100630.28;;;0.79;76.31
21236;BME280;10775;42.678;26.324;2023-02-13T01:21:41;100626.06;;;0.81;76.11
21236;BME280;10775;42.678;26.324;2023-02-13T01:24:07;100628.28;;;0.92;75.82
21236;BME280;10775;42.678;26.324;2023-02-13T01:26:33;100624.97;;;0.94;75.60
21236;BME280;10775;42.678;26.324;2023-02-13T01:28:58;100625.38;;;1.02;75.63
21236;BME280;10775;42.678;26.324;2023-02-13T01:31:24;100636.25;;;0.96;75.02
21236;BME280;10775;42.678;26.324;2023-02-13T01:33:50;100643.31;;;0.82;75.58
21236;BME280;10775;42.678;26.324;2023-02-13T01:36:15;100628.16;;;0.89;75.91
21236;BME280;10775;42.678;26.324;2023-02-13T01:38:41;100629.56;;;1.00;75.28
21236;BME280;10775;42.678;26.324;2023-02-13T01:41:08;100637.59;;;1.06;75.19
21236;BME280;10775;42.678;26.324;2023-02-13T01:43:52;100634.78;;;1.01;75.04
21236;BME280;10775;42.678;26.324;2023-02-13T01:48:55;100633.09;;;1.02;75.02
21236;BME280;10775;42.678;26.324;2023-02-13T01:51:29;100637.44;;;1.03;75.16
21236;BME280;10775;42.678;26.324;2023-02-13T01:54:05;100634.19;;;1.07;75.12
21236;BME280;10775;42.678;26.324;2023-02-13T01:56:42;100625.69;;;1.08;74.90
21236;BME280;10775;42.678;26.324;2023-02-13T01:59:13;100632.44;;;1.06;74.84
21236;BME280;10775;42.678;26.324;2023-02-13T02:01:40;100630.50;;;1.02;74.92
21236;BME280;10775;42.678;26.324;2023-02-13T02:04:13;100625.38;;;1.02;74.95
21236;BME280;10775;42.678;26.324;2023-02-13T02:06:47;100631.84;;;0.94;75.02
21236;BME280;10775;42.678;26.324;2023-02-13T02:09:18;100632.16;;;1.00;75.02
21236;BME280;10775;42.678;26.324;2023-02-13T02:12:01;100634.06;;;1.04;75.10
21236;BME280;10775;42.678;26.324;2023-02-13T02:14:29;100635.44;;;0.79;75.31
21236;BME280;10775;42.678;26.324;2023-02-13T02:16:55;100635.72;;;0.85;75.47
21236;BME280;10775;42.678;26.324;2023-02-13T02:19:44;100637.88;;;0.94;75.66
21236;BME280;10775;42.678;26.324;2023-02-13T02:41:18;100655.84;;;0.76;75.61
21236;BME280;10775;42.678;26.324;2023-02-13T02:44:38;100654.72;;;0.88;75.74
21236;BME280;10775;42.678;26.324;2023-02-13T02:50:10;100667.28;;;0.81;75.00
21236;BME280;10775;42.678;26.324;2023-02-13T02:53:11;100658.31;;;0.57;74.37
21236;BME280;10775;42.678;26.324;2023-02-13T02:56:04;100664.91;;;0.52;75.96
21236;BME280;10775;42.678;26.324;2023-02-13T02:58:41;100677.78;;;0.52;76.29
21236;BME280;10775;42.678;26.324;2023-02-13T03:01:29;100664.75;;;0.65;76.34
21236;BME280;10775;42.678;26.324;2023-02-13T03:07:08;100669.56;;;0.75;76.26
21236;BME280;10775;42.678;26.324;2023-02-13T03:09:41;100664.78;;;0.83;75.97
21236;BME280;10775;42.678;26.324;2023-02-13T03:12:41;100665.19;;;0.91;75.72
21236;BME280;10775;42.678;26.324;2023-02-13T03:15:27;100673.47;;;0.85;74.92
21236;BME280;10775;42.678;26.324;2023-02-13T03:17:54;100666.19;;;0.60;75.80
21236;BME280;10775;42.678;26.324;2023-02-13T03:20:45;100656.03;;;0.79;76.04
21236;BME280;10775;42.678;26.324;2023-02-13T03:29:14;100646.13;;;0.87;75.39
21236;BME280;10775;42.678;26.324;2023-02-13T03:37:54;100663.91;;;0.82;75.47
21236;BME280;10775;42.678;26.324;2023-02-13T03:40:50;100653.16;;;0.91;75.24
21236;BME280;10775;42.678;26.324;2023-02-13T03:43:46;100645.50;;;0.75;75.10
21236;BME280;10775;42.678;26.324;2023-02-13T03:46:16;100647.56;;;0.82;75.47
21236;BME280;10775;42.678;26.324;2023-02-13T03:48:44;100653.84;;;0.87;75.48
21236;BME280;10775;42.678;26.324;2023-02-13T03:51:37;100660.13;;;0.92;75.13
21236;BME280;10775;42.678;26.324;2023-02-13T03:54:07;100648.84;;;0.90;75.08
21236;BME280;10775;42.678;26.324;2023-02-13T03:56:39;100645.06;;;0.83;75.02
21236;BME280;10775;42.678;26.324;2023-02-13T03:59:33;100643.16;;;0.79;75.53
21236;BME280;10775;42.678;26.324;2023-02-13T04:02:12;100645.56;;;0.76;75.54
21236;BME280;10775;42.678;26.324;2023-02-13T04:07:15;100645.44;;;0.57;75.34
21236;BME280;10775;42.678;26.324;2023-02-13T04:09:54;100640.94;;;0.53;76.17
21236;BME280;10775;42.678;26.324;2023-02-13T04:15:19;100652.03;;;0.35;76.91
21236;BME280;10775;42.678;26.324;2023-02-13T04:17:52;100660.25;;;0.45;77.02
21236;BME280;10775;42.678;26.324;2023-02-13T04:20:19;100659.44;;;0.46;77.07
21236;BME280;10775;42.678;26.324;2023-02-13T04:22:47;100665.72;;;0.34;75.93
21236;BME280;10775;42.678;26.324;2023-02-13T04:25:14;100663.16;;;0.34;77.28
21236;BME280;10775;42.678;26.324;2023-02-13T04:27:40;100660.41;;;0.48;77.25
21236;BME280;10775;42.678;26.324;2023-02-13T04:30:07;100667.50;;;0.52;76.91
21236;BME280;10775;42.678;26.324;2023-02-13T04:32:33;100665.72;;;0.51;76.75
21236;BME280;10775;42.678;26.324;2023-02-13T04:34:58;100665.72;;;0.51;76.80
21236;BME280;10775;42.678;26.324;2023-02-13T04:37:24;100668.38;;;0.52;76.34
21236;BME280;10775;42.678;26.324;2023-02-13T04:39:49;100665.94;;;0.22;75.52
21236;BME280;10775;42.678;26.324;2023-02-13T04:42:15;100671.03;;;0.21;76.84
21236;BME280;10775;42.678;26.324;2023-02-13T04:44:40;100673.03;;;0.27;77.73
21236;BME280;10775;42.678;26.324;2023-02-13T04:47:05;100673.53;;;0.36;77.54
21236;BME280;10775;42.678;26.324;2023-02-13T04:49:31;100664.19;;;0.38;77.43
21236;BME280;10775;42.678;26.324;2023-02-13T04:51:56;100669.31;;;0.38;77.32
21236;BME280;10775;42.678;26.324;2023-02-13T04:54:22;100669.13;;;0.33;77.17
21236;BME280;10775;42.678;26.324;2023-02-13T04:56:47;100676.50;;;0.27;77.57
21236;BME280;10775;42.678;26.324;2023-02-13T04:59:13;100673.13;;;0.28;78.08
21236;BME280;10775;42.678;26.324;2023-02-13T05:01:38;100672.31;;;0.29;77.63
21236;BME280;10775;42.678;26.324;2023-02-13T05:04:03;100678.50;;;0.33;77.57
21236;BME280;10775;42.678;26.324;2023-02-13T05:06:29;100679.06;;;0.27;77.55
21236;BME280;10775;42.678;26.324;2023-02-13T05:08:55;100683.09;;;0.22;77.89
21236;BME280;10775;42.678;26.324;2023-02-13T05:11:20;100684.78;;;0.21;77.96
21236;BME280;10775;42.678;26.324;2023-02-13T05:13:46;100687.19;;;0.18;77.65
21236;BME280;10775;42.678;26.324;2023-02-13T05:16:11;100688.88;;;0.18;78.22
21236;BME280;10775;42.678;26.324;2023-02-13T05:18:36;100686.22;;;0.16;78.30
21236;BME280;10775;42.678;26.324;2023-02-13T05:21:02;100693.22;;;0.19;78.19
21236;BME280;10775;42.678;26.324;2023-02-13T05:23:46;100697.81;;;0.25;78.06
21236;BME280;10775;42.678;26.324;2023-02-13T05:26:11;100693.94;;;0.16;77.83
21236;BME280;10775;42.678;26.324;2023-02-13T05:28:37;100689.50;;;0.14;78.05
21236;BME280;10775;42.678;26.324;2023-02-13T05:31:21;100693.38;;;0.22;78.15
21236;BME280;10775;42.678;26.324;2023-02-13T05:33:46;100693.38;;;0.22;77.78
21236;BME280;10775;42.678;26.324;2023-02-13T05:36:12;100699.50;;;0.24;78.03
21236;BME280;10775;42.678;26.324;2023-02-13T05:38:37;100703.81;;;0.25;77.65
21236;BME280;10775;42.678;26.324;2023-02-13T05:41:03;100704.13;;;0.15;76.52
21236;BME280;10775;42.678;26.324;2023-02-13T05:43:29;100703.25;;;0.14;76.84
21236;BME280;10775;42.678;26.324;2023-02-13T05:46:05;100696.56;;;0.02;76.78
21236;BME280;10775;42.678;26.324;2023-02-13T05:48:32;100703.00;;;0.10;76.87
21236;BME280;10775;42.678;26.324;2023-02-13T05:50:58;100708.38;;;-0.02;76.31
21236;BME280;10775;42.678;26.324;2023-02-13T05:53:23;100707.66;;;0.01;77.67
21236;BME280;10775;42.678;26.324;2023-02-13T05:55:49;100709.28;;;0.15;78.28
21236;BME280;10775;42.678;26.324;2023-02-13T05:58:19;100710.50;;;0.21;78.55
21236;BME280;10775;42.678;26.324;2023-02-13T06:00:45;100712.78;;;0.32;79.52
21236;BME280;10775;42.678;26.324;2023-02-13T06:03:10;100711.25;;;0.52;79.39
21236;BME280;10775;42.678;26.324;2023-02-13T06:05:36;100713.50;;;0.62;78.71
21236;BME280;10775;42.678;26.324;2023-02-13T06:08:01;100716.31;;;0.67;80.23
21236;BME280;10775;42.678;26.324;2023-02-13T06:10:27;100719.94;;;0.70;79.29
21236;BME280;10775;42.678;26.324;2023-02-13T06:12:52;100725.63;;;0.97;81.73
21236;BME280;10775;42.678;26.324;2023-02-13T06:15:18;100725.69;;;1.15;80.49
21236;BME280;10775;42.678;26.324;2023-02-13T06:17:43;100729.06;;;1.32;80.68
21236;BME280;10775;42.678;26.324;2023-02-13T06:20:09;100729.81;;;1.29;78.68
21236;BME280;10775;42.678;26.324;2023-02-13T06:22:34;100734.03;;;1.45;80.40
21236;BME280;10775;42.678;26.324;2023-02-13T06:25:00;100729.41;;;1.56;81.18
21236;BME280;10775;42.678;26.324;2023-02-13T06:27:25;100732.06;;;1.76;81.73
21236;BME280;10775;42.678;26.324;2023-02-13T06:29:51;100726.25;;;1.80;78.90
21236;BME280;10775;42.678;26.324;2023-02-13T06:32:16;100730.25;;;2.10;81.78
21236;BME280;10775;42.678;26.324;2023-02-13T06:34:42;100729.88;;;2.40;82.66
21236;BME280;10775;42.678;26.324;2023-02-13T06:37:07;100729.56;;;2.52;83.92
21236;BME280;10775;42.678;26.324;2023-02-13T06:39:33;100732.28;;;2.74;84.39
21236;BME280;10775;42.678;26.324;2023-02-13T06:41:58;100736.28;;;2.68;82.12
21236;BME280;10775;42.678;26.324;2023-02-13T06:44:24;100746.16;;;2.76;83.13
21236;BME280;10775;42.678;26.324;2023-02-13T06:46:49;100736.22;;;2.86;88.09
21236;BME280;10775;42.678;26.324;2023-02-13T06:49:15;100740.75;;;3.11;88.22
21236;BME280;10775;42.678;26.324;2023-02-13T06:51:40;100730.00;;;3.01;86.63
21236;BME280;10775;42.678;26.324;2023-02-13T06:54:06;100736.75;;;3.17;88.00
21236;BME280;10775;42.678;26.324;2023-02-13T06:56:31;100735.66;;;3.12;88.16
21236;BME280;10775;42.678;26.324;2023-02-13T06:58:57;100739.56;;;3.23;91.72
21236;BME280;10775;42.678;26.324;2023-02-13T07:01:22;100739.56;;;3.44;88.36
21236;BME280;10775;42.678;26.324;2023-02-13T07:03:48;100738.44;;;3.59;91.38
21236;BME280;10775;42.678;26.324;2023-02-13T07:06:20;100734.78;;;3.75;89.57
21236;BME280;10775;42.678;26.324;2023-02-13T07:08:46;100737.81;;;3.43;83.36
21236;BME280;10775;42.678;26.324;2023-02-13T07:11:22;100743.22;;;3.29;87.19
21236;BME280;10775;42.678;26.324;2023-02-13T07:13:48;100747.41;;;3.46;90.50
21236;BME280;10775;42.678;26.324;2023-02-13T07:16:14;100743.19;;;3.69;91.42
21236;BME280;10775;42.678;26.324;2023-02-13T07:18:39;100737.44;;;3.76;92.98
21236;BME280;10775;42.678;26.324;2023-02-13T07:21:06;100733.22;;;4.01;93.10
21236;BME280;10775;42.678;26.324;2023-02-13T07:23:31;100728.50;;;4.13;93.83
21236;BME280;10775;42.678;26.324;2023-02-13T07:25:58;100736.97;;;4.31;93.15
21236;BME280;10775;42.678;26.324;2023-02-13T07:28:24;100734.38;;;4.31;93.29
21236;BME280;10775;42.678;26.324;2023-02-13T07:30:50;100724.66;;;3.81;83.41
21236;BME280;10775;42.678;26.324;2023-02-13T07:33:16;100715.22;;;3.81;93.66
21236;BME280;10775;42.678;26.324;2023-02-13T07:35:51;100723.25;;;4.11;96.90
21236;BME280;10775;42.678;26.324;2023-02-13T07:38:17;100714.16;;;4.21;96.29
21236;BME280;10775;42.678;26.324;2023-02-13T07:40:43;100720.97;;;4.42;99.70
21236;BME280;10775;42.678;26.324;2023-02-13T07:43:09;100701.94;;;4.41;99.39
21236;BME280;10775;42.678;26.324;2023-02-13T07:45:34;100715.53;;;4.58;97.82
21236;BME280;10775;42.678;26.324;2023-02-13T07:48:00;100712.56;;;4.25;93.07
21236;BME280;10775;42.678;26.324;2023-02-13T07:50:25;100709.53;;;4.36;93.09
21236;BME280;10775;42.678;26.324;2023-02-13T07:52:55;100710.84;;;4.48;93.93
21236;BME280;10775;42.678;26.324;2023-02-13T07:55:21;100711.66;;;4.24;98.75
21236;BME280;10775;42.678;26.324;2023-02-13T07:57:47;100701.03;;;4.63;94.35
21236;BME280;10775;42.678;26.324;2023-02-13T08:00:13;100697.03;;;5.22;83.85
21236;BME280;10775;42.678;26.324;2023-02-13T08:02:39;100701.09;;;6.23;89.93
21236;BME280;10775;42.678;26.324;2023-02-13T08:05:05;100695.47;;;7.34;84.13
21236;BME280;10775;42.678;26.324;2023-02-13T08:07:31;100683.38;;;7.73;76.71
21236;BME280;10775;42.678;26.324;2023-02-13T08:09:56;100691.91;;;8.03;78.24
21236;BME280;10775;42.678;26.324;2023-02-13T08:12:41;100693.19;;;7.84;79.20
21236;BME280;10775;42.678;26.324;2023-02-13T08:15:08;100689.13;;;8.37;72.40
21236;BME280;10775;42.678;26.324;2023-02-13T08:17:35;100692.13;;;8.14;76.05
21236;BME280;10775;42.678;26.324;2023-02-13T08:20:00;100691.41;;;8.21;68.00
21236;BME280;10775;42.678;26.324;2023-02-13T08:29:09;100680.91;;;9.05;71.84
21236;BME280;10775;42.678;26.324;2023-02-13T08:31:35;100681.22;;;9.22;71.56
21236;BME280;10775;42.678;26.324;2023-02-13T08:34:01;100676.69;;;9.11;71.93
21236;BME280;10775;42.678;26.324;2023-02-13T08:36:27;100675.25;;;9.29;72.07
21236;BME280;10775;42.678;26.324;2023-02-13T08:38:52;100666.13;;;9.58;70.27
21236;BME280;10775;42.678;26.324;2023-02-13T08:41:18;100665.97;;;10.06;69.38
21236;BME280;10775;42.678;26.324;2023-02-13T08:43:46;100657.97;;;9.37;69.45
21236;BME280;10775;42.678;26.324;2023-02-13T08:46:12;100657.06;;;9.35;68.80
21236;BME280;10775;42.678;26.324;2023-02-13T08:48:37;100661.75;;;9.03;67.04
21236;BME280;10775;42.678;26.324;2023-02-13T08:51:07;100657.25;;;8.94;76.09
21236;BME280;10775;42.678;26.324;2023-02-13T08:53:34;100656.34;;;9.45;77.77
21236;BME280;10775;42.678;26.324;2023-02-13T08:55:59;100661.34;;;9.85;75.78
21236;BME280;10775;42.678;26.324;2023-02-13T08:58:25;100652.44;;;9.72;74.08
21236;BME280;10775;42.678;26.324;2023-02-13T09:00:50;100647.97;;;9.65;75.77
21236;BME280;10775;42.678;26.324;2023-02-13T09:03:16;100652.31;;;9.64;72.06
21236;BME280;10775;42.678;26.324;2023-02-13T09:05:42;100648.72;;;9.57;70.75
21236;BME280;10775;42.678;26.324;2023-02-13T09:08:07;100646.13;;;9.57;75.57
21236;BME280;10775;42.678;26.324;2023-02-13T09:10:36;100649.41;;;9.44;67.76
21236;BME280;10775;42.678;26.324;2023-02-13T09:13:36;100652.19;;;9.56;71.72
21236;BME280;10775;42.678;26.324;2023-02-13T09:16:06;100651.56;;;9.73;72.95
21236;BME280;10775;42.678;26.324;2023-02-13T09:18:33;100645.84;;;9.39;70.95
21236;BME280;10775;42.678;26.324;2023-02-13T09:21:04;100645.13;;;9.49;74.74
21236;BME280;10775;42.678;26.324;2023-02-13T09:23:31;100638.28;;;9.57;69.82
21236;BME280;10775;42.678;26.324;2023-02-13T09:25:59;100639.16;;;9.56;69.93
21236;BME280;10775;42.678;26.324;2023-02-13T09:28:25;100635.47;;;9.44;72.25
21236;BME280;10775;42.678;26.324;2023-02-13T09:30:50;100629.25;;;9.37;69.60
21236;BME280;10775;42.678;26.324;2023-02-13T09:33:16;100627.44;;;9.33;68.43
21236;BME280;10775;42.678;26.324;2023-02-13T09:35:41;100622.41;;;9.44;72.21
21236;BME280;10775;42.678;26.324;2023-02-13T09:38:08;100620.09;;;9.65;70.61
21236;BME280;10775;42.678;26.324;2023-02-13T09:40:43;100611.91;;;9.41;64.99
21236;BME280;10775;42.678;26.324;2023-02-13T09:43:27;100619.59;;;9.33;67.11
21236;BME280;10775;42.678;26.324;2023-02-13T09:46:04;100604.34;;;9.03;64.42
21236;BME280;10775;42.678;26.324;2023-02-13T09:48:35;100604.13;;;8.90;65.20
21236;BME280;10775;42.678;26.324;2023-02-13T09:51:02;100606.09;;;9.04;69.57
21236;BME280;10775;42.678;26.324;2023-02-13T09:53:29;100593.63;;;8.86;60.92
21236;BME280;10775;42.678;26.324;2023-02-13T09:58:45;100587.88;;;9.05;63.40
21236;BME280;10775;42.678;26.324;2023-02-13T10:01:31;100587.41;;;9.31;61.72
21236;BME280;10775;42.678;26.324;2023-02-13T10:04:22;100576.28;;;8.89;62.78
21236;BME280;10775;42.678;26.324;2023-02-13T10:06:57;100579.31;;;9.14;65.07
21236;BME280;10775;42.678;26.324;2023-02-13T10:17:33;100571.16;;;8.94;59.01
21236;BME280;10775;42.678;26.324;2023-02-13T10:22:44;100559.13;;;8.52;60.13
21236;BME280;10775;42.678;26.324;2023-02-13T10:25:19;100564.66;;;8.70;63.78
21236;BME280;10775;42.678;26.324;2023-02-13T10:27:51;100549.31;;;8.89;63.87
21236;BME280;10775;42.678;26.324;2023-02-13T10:30:22;100553.63;;;8.87;60.15
21236;BME280;10775;42.678;26.324;2023-02-13T10:36:08;100539.16;;;9.07;63.80
21236;BME280;10775;42.678;26.324;2023-02-13T10:39:09;100542.88;;;9.22;60.90
21236;BME280;10775;42.678;26.324;2023-02-13T10:58:00;100514.41;;;8.81;62.23
21236;BME280;10775;42.678;26.324;2023-02-13T11:03:20;100508.94;;;8.65;61.97
21236;BME280;10775;42.678;26.324;2023-02-13T11:05:47;100505.25;;;9.06;63.77
21236;BME280;10775;42.678;26.324;2023-02-13T11:08:25;100504.91;;;9.44;60.91
21236;BME280;10775;42.678;26.324;2023-02-13T11:10:52;100492.13;;;9.65;64.12
21236;BME280;10775;42.678;26.324;2023-02-13T11:13:27;100507.53;;;9.45;62.09
21236;BME280;10775;42.678;26.324;2023-02-13T11:16:00;100500.78;;;9.60;61.39
21236;BME280;10775;42.678;26.324;2023-02-13T11:18:29;100490.53;;;9.12;56.21
21236;BME280;10775;42.678;26.324;2023-02-13T11:23:32;100485.09;;;9.61;64.56
21236;BME280;10775;42.678;26.324;2023-02-13T11:25:59;100484.91;;;9.44;62.15
21236;BME280;10775;42.678;26.324;2023-02-13T11:28:28;100481.78;;;9.73;64.79
21236;BME280;10775;42.678;26.324;2023-02-13T11:31:10;100467.81;;;9.71;62.57
21236;BME280;10775;42.678;26.324;2023-02-13T11:33:36;100467.66;;;9.58;61.33
21236;BME280;10775;42.678;26.324;2023-02-13T11:36:07;100469.84;;;9.25;58.32
21236;BME280;10775;42.678;26.324;2023-02-13T11:38:33;100467.25;;;9.26;66.07
21236;BME280;10775;42.678;26.324;2023-02-13T11:43:34;100449.47;;;9.65;62.30
21236;BME280;10775;42.678;26.324;2023-02-13T11:46:11;100444.63;;;9.98;63.97
21236;BME280;10775;42.678;26.324;2023-02-13T11:48:39;100448.09;;;9.97;62.89
21236;BME280;10775;42.678;26.324;2023-02-13T11:51:05;100444.75;;;10.11;66.53
21236;BME280;10775;42.678;26.324;2023-02-13T11:53:35;100435.81;;;9.92;60.90
21236;BME280;10775;42.678;26.324;2023-02-13T11:58:33;100434.41;;;9.42;62.69
21236;BME280;10775;42.678;26.324;2023-02-13T12:01:09;100418.41;;;9.91;66.57
21236;BME280;10775;42.678;26.324;2023-02-13T12:03:35;100415.88;;;9.98;66.33
21236;BME280;10775;42.678;26.324;2023-02-13T12:06:14;100410.13;;;10.33;68.06
21236;BME280;10775;42.678;26.324;2023-02-13T12:08:43;100408.19;;;10.14;64.83
21236;BME280;10775;42.678;26.324;2023-02-13T12:14:11;100396.16;;;10.28;66.29
21236;BME280;10775;42.678;26.324;2023-02-13T12:16:42;100397.78;;;10.18;63.02
21236;BME280;10775;42.678;26.324;2023-02-13T12:19:12;100393.19;;;9.93;66.12
21236;BME280;10775;42.678;26.324;2023-02-13T12:37:56;100384.13;;;10.52;60.78
21236;BME280;10775;42.678;26.324;2023-02-13T12:43:41;100374.47;;;10.44;68.73
21236;BME280;10775;42.678;26.324;2023-02-13T12:46:53;100374.53;;;10.55;69.13
21236;BME280;10775;42.678;26.324;2023-02-13T13:03:06;100369.16;;;10.34;71.81
21236;BME280;10775;42.678;26.324;2023-02-13T13:21:38;100362.19;;;10.31;73.83
21236;BME280;10775;42.678;26.324;2023-02-13T13:24:31;100353.66;;;10.60;74.39
21236;BME280;10775;42.678;26.324;2023-02-13T13:26:59;100352.81;;;10.61;72.52
21236;BME280;10775;42.678;26.324;2023-02-13T13:29:33;100350.03;;;10.39;67.39
21236;BME280;10775;42.678;26.324;2023-02-13T13:32:05;100354.50;;;10.54;73.71
21236;BME280;10775;42.678;26.324;2023-02-13T13:34:33;100349.97;;;10.32;68.01
21236;BME280;10775;42.678;26.324;2023-02-13T13:39:53;100347.25;;;9.32;66.45
21236;BME280;10775;42.678;26.324;2023-02-13T13:42:41;100338.22;;;9.85;79.54
21236;BME280;10775;42.678;26.324;2023-02-13T13:48:13;100325.47;;;10.22;72.36
21236;BME280;10775;42.678;26.324;2023-02-13T13:50:40;100327.47;;;10.54;77.69
21236;BME280;10775;42.678;26.324;2023-02-13T13:58:42;100316.38;;;11.01;74.94
21236;BME280;10775;42.678;26.324;2023-02-13T14:01:24;100314.72;;;11.24;77.41
21236;BME280;10775;42.678;26.324;2023-02-13T14:04:01;100320.06;;;11.67;71.55
21236;BME280;10775;42.678;26.324;2023-02-13T14:09:05;100314.63;;;11.00;75.37
21236;BME280;10775;42.678;26.324;2023-02-13T14:13:57;100312.78;;;10.80;74.60
21236;BME280;10775;42.678;26.324;2023-02-13T14:16:44;100312.75;;;10.73;75.36
21236;BME280;10775;42.678;26.324;2023-02-13T14:21:47;100311.00;;;10.69;77.29
21236;BME280;10775;42.678;26.324;2023-02-13T14:24:15;100315.38;;;10.70;79.78
21236;BME280;10775;42.678;26.324;2023-02-13T14:26:49;100321.19;;;10.30;73.92
21236;BME280;10775;42.678;26.324;2023-02-13T14:29:22;100311.72;;;10.41;77.49
21236;BME280;10775;42.678;26.324;2023-02-13T14:31:58;100309.75;;;10.16;72.56
21236;BME280;10775;42.678;26.324;2023-02-13T14:34:28;100301.66;;;9.87;75.07
21236;BME280;10775;42.678;26.324;2023-02-13T14:39:41;100311.38;;;10.01;74.41
21236;BME280;10775;42.678;26.324;2023-02-13T14:42:33;100300.91;;;10.01;78.76
21236;BME280;10775;42.678;26.324;2023-02-13T14:45:02;100301.84;;;10.10;82.97
21236;BME280;10775;42.678;26.324;2023-02-13T14:47:36;100306.16;;;10.03;82.85
21236;BME280;10775;42.678;26.324;2023-02-13T14:50:05;100295.81;;;10.20;80.00
21236;BME280;10775;42.678;26.324;2023-02-13T14:52:37;100301.09;;;10.26;82.92
21236;BME280;10775;42.678;26.324;2023-02-13T14:55:13;100293.13;;;10.09;82.35
21236;BME280;10775;42.678;26.324;2023-02-13T14:57:49;100290.56;;;10.14;87.20
21236;BME280;10775;42.678;26.324;2023-02-13T15:02:48;100286.97;;;9.99;86.40
21236;BME280;10775;42.678;26.324;2023-02-13T15:05:19;100277.41;;;10.01;85.49
21236;BME280;10775;42.678;26.324;2023-02-13T15:10:38;100275.59;;;9.94;89.06
21236;BME280;10775;42.678;26.324;2023-02-13T15:13:14;100282.53;;;9.91;90.31
21236;BME280;10775;42.678;26.324;2023-02-13T15:15:40;100274.69;;;9.88;89.36
21236;BME280;10775;42.678;26.324;2023-02-13T15:18:21;100279.91;;;9.88;85.05
21236;BME280;10775;42.678;26.324;2023-02-13T15:20:48;100282.50;;;9.86;90.61
21236;BME280;10775;42.678;26.324;2023-02-13T15:23:21;100286.59;;;9.58;82.04
21236;BME280;10775;42.678;26.324;2023-02-13T15:25:55;100283.84;;;9.43;92.22
21236;BME280;10775;42.678;26.324;2023-02-13T15:28:22;100291.66;;;9.43;92.58
21236;BME280;10775;42.678;26.324;2023-02-13T15:30:59;100285.59;;;9.42;86.55
21236;BME280;10775;42.678;26.324;2023-02-13T15:33:28;100282.09;;;9.42;92.60
21236;BME280;10775;42.678;26.324;2023-02-13T15:36:01;100288.84;;;9.23;84.80
21236;BME280;10775;42.678;26.324;2023-02-13T15:38:35;100284.09;;;8.86;85.97
21236;BME280;10775;42.678;26.324;2023-02-13T15:41:10;100290.66;;;8.58;89.29
21236;BME280;10775;42.678;26.324;2023-02-13T15:43:39;100302.94;;;8.09;83.18
21236;BME280;10775;42.678;26.324;2023-02-13T15:48:56;100291.03;;;7.72;71.20
21236;BME280;10775;42.678;26.324;2023-02-13T15:51:25;100294.78;;;7.37;71.21
21236;BME280;10775;42.678;26.324;2023-02-13T15:53:53;100308.47;;;7.76;96.31
21236;BME280;10775;42.678;26.324;2023-02-13T15:56:20;100303.66;;;7.49;73.60
21236;BME280;10775;42.678;26.324;2023-02-13T15:58:47;100299.59;;;7.17;78.23
21236;BME280;10775;42.678;26.324;2023-02-13T16:01:13;100300.25;;;7.06;83.20